sensor_id;sensor_type;location;lat;lon;timestamp;P1;durP1;ratioP1;P2;durP2;ratioP2
56631;SDS011;42503;39.928;-75.152;2022-11-15T00:01:38;0.43;;;0.40;;
56631;SDS011;42503;39.928;-75.152;2022-11-15T00:03:39;0.35;;;0.35;;
56631;SDS011;42503;39.928;-75.152;2022-11-15T00:05:41;1.23;;;0.43;;
56631;SDS011;42503;39.928;-75.152;2022-11-15T00:07:45;0.70;;;0.50;;
56631;SDS011;42503;39.928;-75.152;2022-11-15T00:09:55;2.00;;;0.50;;
56631;SDS011;42503;39.928;-75.152;2022-11-15T00:11:57;0.40;;;0.30;;
56631;SDS011;42503;39.928;-75.152;2022-11-15T00:13:58;0.50;;;0.50;;
56631;SDS011;42503;39.928;-75.152;2022-11-15T00:16:02;1.20;;;0.45;;
56631;SDS011;42503;39.928;-75.152;2022-11-15T00:18:04;0.73;;;0.50;;
56631;SDS011;42503;39.928;-75.152;2022-11-15T00:20:16;0.70;;;0.40;;
56631;SDS011;42503;39.928;-75.152;2022-11-15T00:22:18;0.70;;;0.68;;
56631;SDS011;42503;39.928;-75.152;2022-11-15T00:24:22;0.60;;;0.50;;
56631;SDS011;42503;39.928;-75.152;2022-11-15T00:26:29;0.60;;;0.50;;
56631;SDS011;42503;39.928;-75.152;2022-11-15T00:28:33;0.73;;;0.50;;
56631;SDS011;42503;39.928;-75.152;2022-11-15T00:30:35;1.08;;;0.60;;
56631;SDS011;42503;39.928;-75.152;2022-11-15T00:32:39;0.55;;;0.47;;
56631;SDS011;42503;39.928;-75.152;2022-11-15T00:34:43;0.40;;;0.37;;
56631;SDS011;42503;39.928;-75.152;2022-11-15T00:36:50;0.57;;;0.40;;
56631;SDS011;42503;39.928;-75.152;2022-11-15T00:38:51;0.60;;;0.50;;
56631;SDS011;42503;39.928;-75.152;2022-11-15T00:40:52;1.52;;;0.47;;
56631;SDS011;42503;39.928;-75.152;2022-11-15T00:42:54;0.90;;;0.45;;
56631;SDS011;42503;39.928;-75.152;2022-11-15T00:44:58;0.90;;;0.70;;
56631;SDS011;42503;39.928;-75.152;2022-11-15T00:46:59;0.68;;;0.65;;
56631;SDS011;42503;39.928;-75.152;2022-11-15T00:49:00;0.40;;;0.40;;
56631;SDS011;42503;39.928;-75.152;2022-11-15T00:51:01;0.82;;;0.60;;
56631;SDS011;42503;39.928;-75.152;2022-11-15T00:53:03;0.73;;;0.50;;
56631;SDS011;42503;39.928;-75.152;2022-11-15T00:55:08;0.52;;;0.52;;
56631;SDS011;42503;39.928;-75.152;2022-11-15T00:57:15;0.85;;;0.80;;
56631;SDS011;42503;39.928;-75.152;2022-11-15T00:59:16;0.50;;;0.40;;
56631;SDS011;42503;39.928;-75.152;2022-11-15T01:01:17;0.47;;;0.38;;
56631;SDS011;42503;39.928;-75.152;2022-11-15T01:03:19;0.50;;;0.50;;
56631;SDS011;42503;39.928;-75.152;2022-11-15T01:05:20;1.33;;;0.52;;
56631;SDS011;42503;39.928;-75.152;2022-11-15T01:07:21;1.13;;;0.52;;
56631;SDS011;42503;39.928;-75.152;2022-11-15T01:09:23;0.77;;;0.57;;
56631;SDS011;42503;39.928;-75.152;2022-11-15T01:11:27;1.15;;;0.82;;
56631;SDS011;42503;39.928;-75.152;2022-11-15T01:13:32;1.00;;;0.50;;
56631;SDS011;42503;39.928;-75.152;2022-11-15T01:15:40;0.80;;;0.80;;
56631;SDS011;42503;39.928;-75.152;2022-11-15T01:17:42;1.60;;;0.50;;
56631;SDS011;42503;39.928;-75.152;2022-11-15T01:19:43;0.70;;;0.40;;
56631;SDS011;42503;39.928;-75.152;2022-11-15T01:21:44;0.68;;;0.60;;
56631;SDS011;42503;39.928;-75.152;2022-11-15T01:23:46;0.50;;;0.50;;
56631;SDS011;42503;39.928;-75.152;2022-11-15T01:25:47;0.60;;;0.60;;
56631;SDS011;42503;39.928;-75.152;2022-11-15T01:27:48;1.10;;;0.40;;
56631;SDS011;42503;39.928;-75.152;2022-11-15T01:29:49;0.55;;;0.45;;
56631;SDS011;42503;39.928;-75.152;2022-11-15T01:31:52;0.65;;;0.57;;
56631;SDS011;42503;39.928;-75.152;2022-11-15T01:33:54;0.65;;;0.50;;
56631;SDS011;42503;39.928;-75.152;2022-11-15T01:35:56;0.55;;;0.50;;
56631;SDS011;42503;39.928;-75.152;2022-11-15T01:37:57;1.13;;;0.70;;
56631;SDS011;42503;39.928;-75.152;2022-11-15T01:39:58;0.50;;;0.50;;
56631;SDS011;42503;39.928;-75.152;2022-11-15T01:42:00;0.50;;;0.50;;
56631;SDS011;42503;39.928;-75.152;2022-11-15T01:46:36;1.20;;;0.80;;
56631;SDS011;42503;39.928;-75.152;2022-11-15T01:48:39;0.90;;;0.60;;
56631;SDS011;42503;39.928;-75.152;2022-11-15T01:50:40;0.90;;;0.60;;
56631;SDS011;42503;39.928;-75.152;2022-11-15T01:52:41;1.23;;;0.50;;
56631;SDS011;42503;39.928;-75.152;2022-11-15T01:54:43;1.95;;;0.73;;
56631;SDS011;42503;39.928;-75.152;2022-11-15T01:56:58;1.10;;;0.80;;
56631;SDS011;42503;39.928;-75.152;2022-11-15T01:59:05;0.55;;;0.47;;
56631;SDS011;42503;39.928;-75.152;2022-11-15T02:01:09;0.97;;;0.60;;
56631;SDS011;42503;39.928;-75.152;2022-11-15T02:03:18;0.95;;;0.80;;
56631;SDS011;42503;39.928;-75.152;2022-11-15T02:05:22;0.63;;;0.57;;
56631;SDS011;42503;39.928;-75.152;2022-11-15T02:07:24;1.15;;;0.68;;
56631;SDS011;42503;39.928;-75.152;2022-11-15T02:09:28;0.63;;;0.63;;
56631;SDS011;42503;39.928;-75.152;2022-11-15T02:11:30;1.02;;;0.85;;
56631;SDS011;42503;39.928;-75.152;2022-11-15T02:13:32;0.80;;;0.70;;
56631;SDS011;42503;39.928;-75.152;2022-11-15T02:15:35;1.08;;;0.80;;
56631;SDS011;42503;39.928;-75.152;2022-11-15T02:17:56;2.30;;;0.77;;
56631;SDS011;42503;39.928;-75.152;2022-11-15T02:23:17;2.03;;;0.93;;
56631;SDS011;42503;39.928;-75.152;2022-11-15T02:32:40;1.30;;;0.70;;
56631;SDS011;42503;39.928;-75.152;2022-11-15T02:37:19;1.05;;;0.70;;
56631;SDS011;42503;39.928;-75.152;2022-11-15T02:42:09;2.08;;;0.77;;
56631;SDS011;42503;39.928;-75.152;2022-11-15T02:44:38;3.25;;;0.82;;
56631;SDS011;42503;39.928;-75.152;2022-11-15T02:46:59;1.67;;;0.75;;
56631;SDS011;42503;39.928;-75.152;2022-11-15T02:49:15;5.30;;;1.10;;
56631;SDS011;42503;39.928;-75.152;2022-11-15T02:51:17;3.90;;;1.00;;
56631;SDS011;42503;39.928;-75.152;2022-11-15T02:53:23;2.80;;;1.02;;
56631;SDS011;42503;39.928;-75.152;2022-11-15T02:55:32;4.47;;;1.52;;
56631;SDS011;42503;39.928;-75.152;2022-11-15T03:06:45;7.13;;;1.73;;
56631;SDS011;42503;39.928;-75.152;2022-11-15T03:11:28;7.75;;;2.53;;
56631;SDS011;42503;39.928;-75.152;2022-11-15T03:13:36;6.72;;;2.90;;
56631;SDS011;42503;39.928;-75.152;2022-11-15T03:15:47;8.40;;;3.03;;
56631;SDS011;42503;39.928;-75.152;2022-11-15T03:18:03;6.18;;;2.83;;
56631;SDS011;42503;39.928;-75.152;2022-11-15T03:20:25;5.85;;;2.60;;
56631;SDS011;42503;39.928;-75.152;2022-11-15T03:22:29;8.20;;;2.60;;
56631;SDS011;42503;39.928;-75.152;2022-11-15T03:24:36;7.43;;;2.88;;
56631;SDS011;42503;39.928;-75.152;2022-11-15T03:26:39;8.73;;;3.30;;
56631;SDS011;42503;39.928;-75.152;2022-11-15T03:28:48;9.32;;;3.13;;
56631;SDS011;42503;39.928;-75.152;2022-11-15T03:30:59;8.38;;;2.80;;
56631;SDS011;42503;39.928;-75.152;2022-11-15T03:33:22;7.75;;;3.10;;
56631;SDS011;42503;39.928;-75.152;2022-11-15T03:35:25;7.78;;;2.60;;
56631;SDS011;42503;39.928;-75.152;2022-11-15T03:37:35;8.18;;;2.80;;
56631;SDS011;42503;39.928;-75.152;2022-11-15T03:39:41;8.38;;;3.22;;
56631;SDS011;42503;39.928;-75.152;2022-11-15T03:46:43;7.80;;;2.67;;
56631;SDS011;42503;39.928;-75.152;2022-11-15T03:48:50;11.57;;;2.50;;
56631;SDS011;42503;39.928;-75.152;2022-11-15T03:50:54;6.47;;;2.65;;
56631;SDS011;42503;39.928;-75.152;2022-11-15T03:52:59;5.78;;;2.60;;
56631;SDS011;42503;39.928;-75.152;2022-11-15T03:55:01;6.63;;;2.70;;
56631;SDS011;42503;39.928;-75.152;2022-11-15T03:57:04;11.05;;;2.70;;
56631;SDS011;42503;39.928;-75.152;2022-11-15T03:59:05;5.75;;;2.55;;
56631;SDS011;42503;39.928;-75.152;2022-11-15T04:01:07;11.55;;;2.65;;
56631;SDS011;42503;39.928;-75.152;2022-11-15T04:03:08;7.70;;;2.30;;
56631;SDS011;42503;39.928;-75.152;2022-11-15T04:05:10;8.05;;;2.75;;
56631;SDS011;42503;39.928;-75.152;2022-11-15T04:07:11;5.57;;;2.10;;
56631;SDS011;42503;39.928;-75.152;2022-11-15T04:09:13;8.88;;;2.05;;
56631;SDS011;42503;39.928;-75.152;2022-11-15T04:11:14;5.95;;;2.75;;
56631;SDS011;42503;39.928;-75.152;2022-11-15T04:13:15;6.78;;;2.40;;
56631;SDS011;42503;39.928;-75.152;2022-11-15T04:15:18;7.45;;;2.45;;
56631;SDS011;42503;39.928;-75.152;2022-11-15T04:17:21;5.97;;;2.33;;
56631;SDS011;42503;39.928;-75.152;2022-11-15T04:19:25;10.27;;;2.55;;
56631;SDS011;42503;39.928;-75.152;2022-11-15T04:21:45;6.63;;;2.60;;
56631;SDS011;42503;39.928;-75.152;2022-11-15T04:24:05;7.80;;;1.90;;
56631;SDS011;42503;39.928;-75.152;2022-11-15T04:26:07;4.82;;;1.95;;
56631;SDS011;42503;39.928;-75.152;2022-11-15T04:28:12;10.57;;;2.05;;
56631;SDS011;42503;39.928;-75.152;2022-11-15T04:30:13;10.05;;;2.60;;
56631;SDS011;42503;39.928;-75.152;2022-11-15T04:32:16;5.32;;;2.17;;
56631;SDS011;42503;39.928;-75.152;2022-11-15T04:34:26;6.90;;;2.13;;
56631;SDS011;42503;39.928;-75.152;2022-11-15T04:36:28;8.07;;;2.08;;
56631;SDS011;42503;39.928;-75.152;2022-11-15T04:38:47;4.85;;;1.80;;
56631;SDS011;42503;39.928;-75.152;2022-11-15T04:40:49;12.25;;;1.77;;
56631;SDS011;42503;39.928;-75.152;2022-11-15T04:42:50;6.55;;;2.05;;
56631;SDS011;42503;39.928;-75.152;2022-11-15T04:44:51;7.65;;;2.13;;
56631;SDS011;42503;39.928;-75.152;2022-11-15T04:46:56;7.00;;;2.30;;
56631;SDS011;42503;39.928;-75.152;2022-11-15T04:48:57;5.82;;;1.92;;
56631;SDS011;42503;39.928;-75.152;2022-11-15T04:50:58;4.88;;;2.08;;
56631;SDS011;42503;39.928;-75.152;2022-11-15T04:52:59;6.88;;;1.85;;
56631;SDS011;42503;39.928;-75.152;2022-11-15T04:55:01;6.03;;;2.13;;
56631;SDS011;42503;39.928;-75.152;2022-11-15T04:57:05;6.47;;;1.90;;
56631;SDS011;42503;39.928;-75.152;2022-11-15T04:59:06;8.88;;;2.30;;
56631;SDS011;42503;39.928;-75.152;2022-11-15T05:01:11;4.50;;;1.85;;
56631;SDS011;42503;39.928;-75.152;2022-11-15T05:03:16;5.30;;;1.92;;
56631;SDS011;42503;39.928;-75.152;2022-11-15T05:05:36;5.70;;;1.73;;
56631;SDS011;42503;39.928;-75.152;2022-11-15T05:07:37;10.15;;;1.92;;
56631;SDS011;42503;39.928;-75.152;2022-11-15T05:09:41;7.32;;;2.20;;
56631;SDS011;42503;39.928;-75.152;2022-11-15T05:11:42;4.82;;;1.90;;
56631;SDS011;42503;39.928;-75.152;2022-11-15T05:13:44;4.38;;;1.80;;
56631;SDS011;42503;39.928;-75.152;2022-11-15T05:15:46;2.97;;;1.70;;
56631;SDS011;42503;39.928;-75.152;2022-11-15T05:17:53;5.93;;;2.10;;
56631;SDS011;42503;39.928;-75.152;2022-11-15T05:20:01;4.15;;;1.75;;
56631;SDS011;42503;39.928;-75.152;2022-11-15T05:22:02;3.83;;;1.75;;
56631;SDS011;42503;39.928;-75.152;2022-11-15T05:24:04;4.47;;;1.92;;
56631;SDS011;42503;39.928;-75.152;2022-11-15T05:26:06;4.45;;;1.77;;
56631;SDS011;42503;39.928;-75.152;2022-11-15T05:28:10;5.93;;;1.83;;
56631;SDS011;42503;39.928;-75.152;2022-11-15T05:30:11;4.90;;;1.92;;
56631;SDS011;42503;39.928;-75.152;2022-11-15T05:32:13;4.60;;;1.65;;
56631;SDS011;42503;39.928;-75.152;2022-11-15T05:34:14;3.05;;;1.80;;
56631;SDS011;42503;39.928;-75.152;2022-11-15T05:36:41;3.60;;;1.50;;
56631;SDS011;42503;39.928;-75.152;2022-11-15T05:38:48;4.78;;;1.58;;
56631;SDS011;42503;39.928;-75.152;2022-11-15T05:40:53;7.85;;;2.03;;
56631;SDS011;42503;39.928;-75.152;2022-11-15T05:42:55;5.03;;;1.48;;
56631;SDS011;42503;39.928;-75.152;2022-11-15T05:45:04;3.22;;;1.52;;
56631;SDS011;42503;39.928;-75.152;2022-11-15T05:47:09;6.13;;;1.70;;
56631;SDS011;42503;39.928;-75.152;2022-11-15T05:49:16;3.67;;;1.08;;
56631;SDS011;42503;39.928;-75.152;2022-11-15T05:51:27;4.32;;;1.65;;
56631;SDS011;42503;39.928;-75.152;2022-11-15T05:55:32;2.95;;;1.50;;
56631;SDS011;42503;39.928;-75.152;2022-11-15T05:57:35;6.97;;;1.77;;
56631;SDS011;42503;39.928;-75.152;2022-11-15T05:59:37;4.45;;;1.67;;
56631;SDS011;42503;39.928;-75.152;2022-11-15T06:01:41;4.22;;;1.63;;
56631;SDS011;42503;39.928;-75.152;2022-11-15T06:03:42;3.45;;;1.60;;
56631;SDS011;42503;39.928;-75.152;2022-11-15T06:05:44;4.30;;;1.73;;
56631;SDS011;42503;39.928;-75.152;2022-11-15T06:07:48;4.03;;;1.45;;
56631;SDS011;42503;39.928;-75.152;2022-11-15T06:09:49;1.50;;;1.30;;
56631;SDS011;42503;39.928;-75.152;2022-11-15T06:11:50;3.60;;;1.30;;
56631;SDS011;42503;39.928;-75.152;2022-11-15T06:13:51;2.72;;;1.42;;
56631;SDS011;42503;39.928;-75.152;2022-11-15T06:15:55;3.90;;;1.67;;
56631;SDS011;42503;39.928;-75.152;2022-11-15T06:17:57;3.70;;;1.58;;
56631;SDS011;42503;39.928;-75.152;2022-11-15T06:20:02;2.33;;;1.25;;
56631;SDS011;42503;39.928;-75.152;2022-11-15T06:22:04;3.20;;;1.17;;
56631;SDS011;42503;39.928;-75.152;2022-11-15T06:24:06;3.67;;;1.55;;
56631;SDS011;42503;39.928;-75.152;2022-11-15T06:26:07;3.22;;;1.20;;
56631;SDS011;42503;39.928;-75.152;2022-11-15T06:28:09;3.15;;;1.50;;
56631;SDS011;42503;39.928;-75.152;2022-11-15T06:30:10;3.70;;;1.17;;
56631;SDS011;42503;39.928;-75.152;2022-11-15T06:32:11;2.63;;;1.20;;
56631;SDS011;42503;39.928;-75.152;2022-11-15T06:34:15;4.63;;;1.30;;
56631;SDS011;42503;39.928;-75.152;2022-11-15T06:36:17;2.58;;;1.30;;
56631;SDS011;42503;39.928;-75.152;2022-11-15T06:38:18;2.75;;;1.10;;
56631;SDS011;42503;39.928;-75.152;2022-11-15T06:40:20;2.35;;;1.55;;
56631;SDS011;42503;39.928;-75.152;2022-11-15T06:42:21;2.53;;;1.23;;
56631;SDS011;42503;39.928;-75.152;2022-11-15T06:44:25;1.85;;;1.10;;
56631;SDS011;42503;39.928;-75.152;2022-11-15T06:46:26;1.88;;;0.90;;
56631;SDS011;42503;39.928;-75.152;2022-11-15T06:48:31;4.18;;;1.48;;
56631;SDS011;42503;39.928;-75.152;2022-11-15T06:50:32;2.42;;;1.20;;
56631;SDS011;42503;39.928;-75.152;2022-11-15T06:52:37;2.88;;;1.15;;
56631;SDS011;42503;39.928;-75.152;2022-11-15T06:54:38;4.28;;;1.65;;
56631;SDS011;42503;39.928;-75.152;2022-11-15T06:56:39;2.08;;;1.10;;
56631;SDS011;42503;39.928;-75.152;2022-11-15T06:58:42;2.72;;;1.20;;
56631;SDS011;42503;39.928;-75.152;2022-11-15T07:00:44;2.53;;;1.38;;
56631;SDS011;42503;39.928;-75.152;2022-11-15T07:02:45;2.78;;;0.95;;
56631;SDS011;42503;39.928;-75.152;2022-11-15T07:04:47;1.75;;;1.20;;
56631;SDS011;42503;39.928;-75.152;2022-11-15T07:06:48;1.10;;;0.98;;
56631;SDS011;42503;39.928;-75.152;2022-11-15T07:08:50;1.42;;;1.08;;
56631;SDS011;42503;39.928;-75.152;2022-11-15T07:10:51;1.73;;;0.93;;
56631;SDS011;42503;39.928;-75.152;2022-11-15T07:12:53;1.30;;;0.90;;
56631;SDS011;42503;39.928;-75.152;2022-11-15T07:14:57;3.60;;;1.38;;
56631;SDS011;42503;39.928;-75.152;2022-11-15T07:17:03;2.72;;;1.13;;
56631;SDS011;42503;39.928;-75.152;2022-11-15T07:19:05;2.20;;;1.00;;
56631;SDS011;42503;39.928;-75.152;2022-11-15T07:21:07;1.30;;;0.90;;
56631;SDS011;42503;39.928;-75.152;2022-11-15T07:23:14;2.00;;;1.17;;
56631;SDS011;42503;39.928;-75.152;2022-11-15T07:25:18;1.70;;;1.38;;
56631;SDS011;42503;39.928;-75.152;2022-11-15T07:27:19;1.98;;;1.05;;
56631;SDS011;42503;39.928;-75.152;2022-11-15T07:29:20;3.33;;;1.10;;
56631;SDS011;42503;39.928;-75.152;2022-11-15T07:31:22;1.42;;;1.13;;
56631;SDS011;42503;39.928;-75.152;2022-11-15T07:33:23;1.65;;;1.20;;
56631;SDS011;42503;39.928;-75.152;2022-11-15T07:35:28;2.88;;;1.35;;
56631;SDS011;42503;39.928;-75.152;2022-11-15T07:37:30;3.00;;;1.13;;
56631;SDS011;42503;39.928;-75.152;2022-11-15T07:39:31;1.45;;;0.88;;
56631;SDS011;42503;39.928;-75.152;2022-11-15T07:41:32;1.27;;;0.82;;
56631;SDS011;42503;39.928;-75.152;2022-11-15T07:43:34;1.83;;;1.20;;
56631;SDS011;42503;39.928;-75.152;2022-11-15T07:45:40;2.92;;;1.05;;
56631;SDS011;42503;39.928;-75.152;2022-11-15T07:47:45;1.55;;;1.20;;
56631;SDS011;42503;39.928;-75.152;2022-11-15T07:49:52;1.30;;;0.82;;
56631;SDS011;42503;39.928;-75.152;2022-11-15T07:51:53;2.92;;;1.23;;
56631;SDS011;42503;39.928;-75.152;2022-11-15T07:53:57;2.05;;;1.17;;
56631;SDS011;42503;39.928;-75.152;2022-11-15T07:55:58;0.93;;;0.82;;
56631;SDS011;42503;39.928;-75.152;2022-11-15T07:58:00;1.40;;;0.90;;
56631;SDS011;42503;39.928;-75.152;2022-11-15T08:00:05;1.83;;;0.88;;
56631;SDS011;42503;39.928;-75.152;2022-11-15T08:02:08;3.00;;;1.00;;
56631;SDS011;42503;39.928;-75.152;2022-11-15T08:04:12;1.85;;;1.08;;
56631;SDS011;42503;39.928;-75.152;2022-11-15T08:06:13;1.27;;;1.00;;
56631;SDS011;42503;39.928;-75.152;2022-11-15T08:08:15;1.58;;;1.08;;
56631;SDS011;42503;39.928;-75.152;2022-11-15T08:10:16;0.98;;;0.90;;
56631;SDS011;42503;39.928;-75.152;2022-11-15T08:12:19;2.13;;;1.25;;
56631;SDS011;42503;39.928;-75.152;2022-11-15T08:14:26;1.95;;;0.90;;
56631;SDS011;42503;39.928;-75.152;2022-11-15T08:16:27;1.80;;;1.00;;
56631;SDS011;42503;39.928;-75.152;2022-11-15T08:18:29;1.67;;;0.98;;
56631;SDS011;42503;39.928;-75.152;2022-11-15T08:20:30;2.90;;;1.10;;
56631;SDS011;42503;39.928;-75.152;2022-11-15T08:22:35;1.10;;;0.80;;
56631;SDS011;42503;39.928;-75.152;2022-11-15T08:24:39;1.85;;;0.90;;
56631;SDS011;42503;39.928;-75.152;2022-11-15T08:26:41;1.70;;;1.17;;
56631;SDS011;42503;39.928;-75.152;2022-11-15T08:28:42;2.67;;;0.93;;
56631;SDS011;42503;39.928;-75.152;2022-11-15T08:30:44;1.67;;;0.82;;
56631;SDS011;42503;39.928;-75.152;2022-11-15T08:32:49;0.85;;;0.60;;
56631;SDS011;42503;39.928;-75.152;2022-11-15T08:34:51;1.80;;;0.90;;
56631;SDS011;42503;39.928;-75.152;2022-11-15T08:36:56;1.43;;;0.90;;
56631;SDS011;42503;39.928;-75.152;2022-11-15T08:39:00;1.15;;;1.02;;
56631;SDS011;42503;39.928;-75.152;2022-11-15T08:41:02;1.42;;;1.02;;
56631;SDS011;42503;39.928;-75.152;2022-11-15T08:45:08;1.15;;;0.85;;
56631;SDS011;42503;39.928;-75.152;2022-11-15T08:47:11;1.63;;;1.27;;
56631;SDS011;42503;39.928;-75.152;2022-11-15T08:49:13;1.58;;;0.80;;
56631;SDS011;42503;39.928;-75.152;2022-11-15T08:51:14;1.30;;;0.90;;
56631;SDS011;42503;39.928;-75.152;2022-11-15T08:53:15;1.80;;;0.90;;
56631;SDS011;42503;39.928;-75.152;2022-11-15T08:55:19;2.50;;;0.85;;
56631;SDS011;42503;39.928;-75.152;2022-11-15T08:57:21;1.52;;;0.90;;
56631;SDS011;42503;39.928;-75.152;2022-11-15T08:59:22;1.45;;;1.00;;
56631;SDS011;42503;39.928;-75.152;2022-11-15T09:01:23;1.77;;;0.90;;
56631;SDS011;42503;39.928;-75.152;2022-11-15T09:03:25;1.08;;;0.80;;
56631;SDS011;42503;39.928;-75.152;2022-11-15T09:05:29;1.83;;;1.00;;
56631;SDS011;42503;39.928;-75.152;2022-11-15T09:07:33;1.65;;;0.90;;
56631;SDS011;42503;39.928;-75.152;2022-11-15T09:09:34;1.65;;;0.80;;
56631;SDS011;42503;39.928;-75.152;2022-11-15T09:11:36;1.15;;;0.80;;
56631;SDS011;42503;39.928;-75.152;2022-11-15T09:13:37;1.13;;;0.80;;
56631;SDS011;42503;39.928;-75.152;2022-11-15T09:15:39;1.05;;;0.90;;
56631;SDS011;42503;39.928;-75.152;2022-11-15T09:17:40;0.90;;;0.75;;
56631;SDS011;42503;39.928;-75.152;2022-11-15T09:19:45;1.00;;;0.68;;
56631;SDS011;42503;39.928;-75.152;2022-11-15T09:21:46;1.52;;;0.80;;
56631;SDS011;42503;39.928;-75.152;2022-11-15T09:23:51;1.27;;;0.80;;
56631;SDS011;42503;39.928;-75.152;2022-11-15T09:25:57;0.57;;;0.57;;
56631;SDS011;42503;39.928;-75.152;2022-11-15T09:28:10;0.90;;;0.80;;
56631;SDS011;42503;39.928;-75.152;2022-11-15T09:30:11;1.00;;;0.80;;
56631;SDS011;42503;39.928;-75.152;2022-11-15T09:32:13;1.38;;;0.85;;
56631;SDS011;42503;39.928;-75.152;2022-11-15T09:34:14;0.98;;;0.77;;
56631;SDS011;42503;39.928;-75.152;2022-11-15T09:36:18;2.03;;;1.00;;
56631;SDS011;42503;39.928;-75.152;2022-11-15T09:38:19;0.80;;;0.80;;
56631;SDS011;42503;39.928;-75.152;2022-11-15T09:40:20;1.23;;;0.80;;
56631;SDS011;42503;39.928;-75.152;2022-11-15T09:42:26;1.08;;;0.90;;
56631;SDS011;42503;39.928;-75.152;2022-11-15T09:44:49;1.00;;;0.90;;
56631;SDS011;42503;39.928;-75.152;2022-11-15T09:47:14;1.08;;;0.77;;
56631;SDS011;42503;39.928;-75.152;2022-11-15T09:49:29;0.75;;;0.75;;
56631;SDS011;42503;39.928;-75.152;2022-11-15T09:51:44;0.80;;;0.80;;
56631;SDS011;42503;39.928;-75.152;2022-11-15T09:53:56;1.15;;;0.85;;
56631;SDS011;42503;39.928;-75.152;2022-11-15T09:56:02;0.80;;;0.70;;
56631;SDS011;42503;39.928;-75.152;2022-11-15T10:00:35;1.42;;;0.82;;
56631;SDS011;42503;39.928;-75.152;2022-11-15T10:02:53;0.75;;;0.70;;
56631;SDS011;42503;39.928;-75.152;2022-11-15T10:05:06;0.82;;;0.70;;
56631;SDS011;42503;39.928;-75.152;2022-11-15T10:07:22;0.73;;;0.70;;
56631;SDS011;42503;39.928;-75.152;2022-11-15T10:12:12;0.95;;;0.73;;
56631;SDS011;42503;39.928;-75.152;2022-11-15T10:14:18;0.93;;;0.70;;
56631;SDS011;42503;39.928;-75.152;2022-11-15T10:21:17;0.85;;;0.82;;
56631;SDS011;42503;39.928;-75.152;2022-11-15T10:23:42;1.15;;;0.65;;
56631;SDS011;42503;39.928;-75.152;2022-11-15T10:25:43;0.98;;;0.73;;
56631;SDS011;42503;39.928;-75.152;2022-11-15T10:27:47;1.30;;;0.80;;
56631;SDS011;42503;39.928;-75.152;2022-11-15T10:29:56;0.65;;;0.60;;
56631;SDS011;42503;39.928;-75.152;2022-11-15T10:31:57;1.50;;;0.80;;
56631;SDS011;42503;39.928;-75.152;2022-11-15T10:34:20;1.45;;;0.77;;
56631;SDS011;42503;39.928;-75.152;2022-11-15T10:36:22;1.00;;;0.90;;
56631;SDS011;42503;39.928;-75.152;2022-11-15T10:38:27;1.02;;;0.70;;
56631;SDS011;42503;39.928;-75.152;2022-11-15T10:40:31;0.98;;;0.60;;
56631;SDS011;42503;39.928;-75.152;2022-11-15T10:42:32;1.33;;;0.77;;
56631;SDS011;42503;39.928;-75.152;2022-11-15T10:44:41;0.68;;;0.55;;
56631;SDS011;42503;39.928;-75.152;2022-11-15T10:46:44;0.52;;;0.50;;
56631;SDS011;42503;39.928;-75.152;2022-11-15T10:49:20;0.80;;;0.80;;
56631;SDS011;42503;39.928;-75.152;2022-11-15T10:51:26;0.63;;;0.57;;
56631;SDS011;42503;39.928;-75.152;2022-11-15T10:53:40;1.00;;;0.80;;
56631;SDS011;42503;39.928;-75.152;2022-11-15T10:55:50;0.70;;;0.70;;
56631;SDS011;42503;39.928;-75.152;2022-11-15T10:57:54;1.10;;;0.93;;
56631;SDS011;42503;39.928;-75.152;2022-11-15T11:04:58;1.08;;;0.75;;
56631;SDS011;42503;39.928;-75.152;2022-11-15T11:07:26;0.82;;;0.82;;
56631;SDS011;42503;39.928;-75.152;2022-11-15T11:09:37;0.68;;;0.63;;
56631;SDS011;42503;39.928;-75.152;2022-11-15T11:11:46;1.02;;;0.88;;
56631;SDS011;42503;39.928;-75.152;2022-11-15T11:13:52;1.33;;;0.95;;
56631;SDS011;42503;39.928;-75.152;2022-11-15T11:18:18;0.85;;;0.60;;
56631;SDS011;42503;39.928;-75.152;2022-11-15T11:20:30;0.93;;;0.80;;
56631;SDS011;42503;39.928;-75.152;2022-11-15T11:27:42;1.05;;;0.80;;
56631;SDS011;42503;39.928;-75.152;2022-11-15T11:30:01;0.57;;;0.57;;
56631;SDS011;42503;39.928;-75.152;2022-11-15T11:41:30;0.70;;;0.70;;
56631;SDS011;42503;39.928;-75.152;2022-11-15T11:46:04;1.60;;;0.80;;
56631;SDS011;42503;39.928;-75.152;2022-11-15T11:48:20;0.70;;;0.60;;
56631;SDS011;42503;39.928;-75.152;2022-11-15T11:50:41;1.10;;;0.70;;
56631;SDS011;42503;39.928;-75.152;2022-11-15T11:55:19;0.88;;;0.70;;
56631;SDS011;42503;39.928;-75.152;2022-11-15T12:02:25;1.08;;;0.70;;
56631;SDS011;42503;39.928;-75.152;2022-11-15T12:04:32;0.68;;;0.60;;
56631;SDS011;42503;39.928;-75.152;2022-11-15T12:08:57;0.77;;;0.70;;
56631;SDS011;42503;39.928;-75.152;2022-11-15T12:11:27;1.10;;;0.80;;
56631;SDS011;42503;39.928;-75.152;2022-11-15T12:13:50;1.42;;;0.80;;
56631;SDS011;42503;39.928;-75.152;2022-11-15T12:18:28;1.02;;;0.70;;
56631;SDS011;42503;39.928;-75.152;2022-11-15T12:20:32;2.42;;;0.70;;
56631;SDS011;42503;39.928;-75.152;2022-11-15T12:29:35;2.92;;;1.08;;
56631;SDS011;42503;39.928;-75.152;2022-11-15T12:31:41;0.93;;;0.60;;
56631;SDS011;42503;39.928;-75.152;2022-11-15T12:33:48;1.88;;;0.70;;
56631;SDS011;42503;39.928;-75.152;2022-11-15T12:35:57;2.30;;;0.90;;
56631;SDS011;42503;39.928;-75.152;2022-11-15T12:38:03;3.28;;;0.80;;
56631;SDS011;42503;39.928;-75.152;2022-11-15T12:40:17;3.15;;;0.65;;
56631;SDS011;42503;39.928;-75.152;2022-11-15T12:42:40;1.00;;;0.50;;
56631;SDS011;42503;39.928;-75.152;2022-11-15T12:44:57;9.95;;;2.05;;
56631;SDS011;42503;39.928;-75.152;2022-11-15T12:47:21;2.65;;;1.10;;
56631;SDS011;42503;39.928;-75.152;2022-11-15T12:53:52;2.33;;;1.10;;
56631;SDS011;42503;39.928;-75.152;2022-11-15T13:00:54;3.10;;;0.90;;
56631;SDS011;42503;39.928;-75.152;2022-11-15T13:07:54;2.17;;;0.80;;
56631;SDS011;42503;39.928;-75.152;2022-11-15T13:09:57;1.02;;;0.80;;
56631;SDS011;42503;39.928;-75.152;2022-11-15T13:11:59;5.00;;;0.82;;
56631;SDS011;42503;39.928;-75.152;2022-11-15T13:16:38;2.67;;;0.80;;
56631;SDS011;42503;39.928;-75.152;2022-11-15T13:18:40;0.80;;;0.70;;
56631;SDS011;42503;39.928;-75.152;2022-11-15T13:20:44;1.40;;;0.90;;
56631;SDS011;42503;39.928;-75.152;2022-11-15T13:22:52;0.93;;;0.60;;
56631;SDS011;42503;39.928;-75.152;2022-11-15T13:25:03;1.75;;;1.00;;
56631;SDS011;42503;39.928;-75.152;2022-11-15T13:27:17;1.00;;;0.70;;
56631;SDS011;42503;39.928;-75.152;2022-11-15T13:29:20;1.20;;;0.80;;
56631;SDS011;42503;39.928;-75.152;2022-11-15T13:31:29;1.45;;;0.70;;
56631;SDS011;42503;39.928;-75.152;2022-11-15T13:35:40;5.30;;;0.98;;
56631;SDS011;42503;39.928;-75.152;2022-11-15T13:37:42;1.00;;;0.70;;
56631;SDS011;42503;39.928;-75.152;2022-11-15T13:39:43;3.33;;;0.90;;
56631;SDS011;42503;39.928;-75.152;2022-11-15T13:41:48;1.70;;;1.00;;
56631;SDS011;42503;39.928;-75.152;2022-11-15T13:43:51;1.73;;;0.90;;
56631;SDS011;42503;39.928;-75.152;2022-11-15T13:48:36;1.73;;;0.70;;
56631;SDS011;42503;39.928;-75.152;2022-11-15T13:50:38;1.40;;;0.70;;
56631;SDS011;42503;39.928;-75.152;2022-11-15T13:52:40;1.05;;;0.80;;
56631;SDS011;42503;39.928;-75.152;2022-11-15T13:54:48;1.63;;;0.88;;
56631;SDS011;42503;39.928;-75.152;2022-11-15T13:59:33;1.55;;;0.80;;
56631;SDS011;42503;39.928;-75.152;2022-11-15T14:01:35;2.83;;;1.00;;
56631;SDS011;42503;39.928;-75.152;2022-11-15T14:03:42;1.23;;;0.80;;
56631;SDS011;42503;39.928;-75.152;2022-11-15T14:08:13;2.55;;;0.80;;
56631;SDS011;42503;39.928;-75.152;2022-11-15T14:12:34;1.75;;;0.80;;
56631;SDS011;42503;39.928;-75.152;2022-11-15T14:14:36;2.63;;;0.80;;